LFLV

Vichy-Charmeil Airport

Airport
ICAO code
LFLV
IATA Code
VHY
Summary
ICAO Region
EUR
ICAO Territory
Location

, Auvergne

Serving
Vichy
Elevation
817 ft
Coordinates
46° 10' 11" N , 3° 24' 13" E
Metar
Observation
LFLV 061700Z AUTO 07004KT 9999 BKN044 06/01 Q1032
Station
Vichy
Date/Time
2023-02-06 17:00:00
Wind direction
70°
Wind speed
04 kts
Lowest cloud amount
broken clouds
Temperature
6°C
Dew point
1°C
Humidity
70%
QNH
1032 hPa
Weather condition
n/a

Runways

Designator Length Width Surface Rops
1/19 2200 45 ASP No/No

Airport map

Aerial View

SKYbrary Partners:

Safety knowledge contributed by: